Time;durP1;ratioP1;P1;durP2;ratioP2;P2;SDS_P1;SDS_P2;PMS_P1;PMS_P2;Temp;Humidity;BMP_temperature;BMP_pressure;BME280_temperature;BME280_humidity;BME280_pressure;Samples;Min_cycle;Max_cycle;Signal;HPM_P1;HPM_P2
2023/09/04 00:01:17;;;;;;;;;;;;;;;;;;4963712;28;20064;-84
2023/09/04 00:03:49;;;;;;;;;;;;;;;;;;4945732;28;19929;-84
2023/09/04 00:09:27;;;;;;;;;;;;;;;;;;4984707;28;19956;-86
2023/09/04 00:11:54;;;;;;;;;;;;;;;;;;4963951;28;19933;-86
2023/09/04 00:14:20;;;;;;;;;;;;;;;;;;4967994;28;19932;-87
2023/09/04 00:16:46;;;;;;;;;;;;;;;;;;4967602;28;20470;-87
2023/09/04 00:19:12;;;;;;;;;;;;;;;;;;4960040;28;19933;-87
2023/09/04 00:21:37;;;;;;;;;;;;;;;;;;4943972;28;19948;-86
2023/09/04 00:24:13;;;;;;;;;;;;;;;;;;4946083;28;19933;-87
2023/09/04 00:26:40;;;;;;;;;;;;;;;;;;4943602;28;19932;-87
2023/09/04 00:29:06;;;;;;;;;;;;;;;;;;4945718;28;19922;-87
2023/09/04 00:31:32;;;;;;;;;;;;;;;;;;4944734;28;19930;-87
2023/09/04 00:33:58;;;;;;;;;;;;;;;;;;4928022;28;20128;-87
2023/09/04 00:36:24;;;;;;;;;;;;;;;;;;4945125;28;20277;-86
2023/09/04 00:38:50;;;;;;;;;;;;;;;;;;4929566;28;19940;-86
2023/09/04 00:41:18;;;;;;;;;;;;;;;;;;4959517;28;19964;-86
2023/09/04 00:43:44;;;;;;;;;;;;;;;;;;4946275;28;19998;-87
2023/09/04 00:46:10;;;;;;;;;;;;;;;;;;4944785;28;20385;-87
2023/09/04 00:48:36;;;;;;;;;;;;;;;;;;4942605;28;20238;-87
2023/09/04 00:51:02;;;;;;;;;;;;;;;;;;4944156;28;19930;-83
2023/09/04 00:53:28;;;;;;;;;;;;;;;;;;4936842;28;19922;-83
2023/09/04 00:55:55;;;;;;;;;;;;;;;;;;4928751;28;19933;-84
2023/09/04 01:01:37;;;;;;;;;;;;;;;;;;4858531;28;20075;-84
2023/09/04 01:04:03;;;;;;;;;;;;;;;;;;4927198;28;19922;-84
2023/09/04 01:06:29;;;;;;;;;;;;;;;;;;4939743;28;19935;-84
2023/09/04 01:08:55;;;;;;;;;;;;;;;;;;4925605;28;19933;-83
2023/09/04 01:11:21;;;;;;;;;;;;;;;;;;4927423;28;19927;-82
2023/09/04 01:13:47;;;;;;;;;;;;;;;;;;4926016;28;19934;-84
2023/09/04 01:16:13;;;;;;;;;;;;;;;;;;4927741;28;19926;-84
2023/09/04 01:18:39;;;;;;;;;;;;;;;;;;4940403;28;20375;-84
2023/09/04 01:21:05;;;;;;;;;;;;;;;;;;4960142;28;19942;-83
2023/09/04 01:23:32;;;;;;;;;;;;;;;;;;4958547;28;19972;-84
2023/09/04 01:25:57;;;;;;;;;;;;;;;;;;4953691;28;20464;-84
2023/09/04 01:28:23;;;;;;;;;;;;;;;;;;4942056;28;19933;-83
2023/09/04 01:33:54;;;;;;;;;;;;;;;;;;5019338;23;19937;-84
2023/09/04 01:36:32;;;;;;;;;;;;;;;;;;;;;
2023/09/04 01:39:04;;;;;;;;;;;;;;;;;;4948277;28;19929;-84
2023/09/04 01:41:31;;;;;;;;;;;;;;;;;;4965440;28;19974;-83
2023/09/04 01:43:58;;;;;;;;;;;;;;;;;;4948107;28;19977;-84
2023/09/04 01:46:34;;;;;;;;;;;;;;;;;;4945419;28;19973;-83
2023/09/04 01:49:02;;;;;;;;;;;;;;;;;;4934323;28;20385;-84
2023/09/04 01:51:32;;;;;;;;;;;;;;;;;;4948087;28;19922;-83
2023/09/04 01:54:11;;;;;;;;;;;;;;;;;;4966105;28;19957;-83
2023/09/04 01:56:47;;;;;;;;;;;;;;;;;;4962281;28;20399;-84
2023/09/04 01:59:27;;;;;;;;;;;;;;;;;;4961010;28;19926;-84
2023/09/04 02:01:56;;;;;;;;;;;;;;;;;;4952093;28;19982;-84
2023/09/04 02:04:21;;;;;;;;;;;;;;;;;;4944437;28;19930;-84
2023/09/04 02:09:36;;;;;;;;;;;;;;;;;;4907274;29;19929;-84
2023/09/04 02:12:03;;;;;;;;;;;;;;;;;;4893494;29;19931;-84
2023/09/04 02:14:31;;;;;;;;;;;;;;;;;;4907183;29;19974;-83
2023/09/04 02:16:59;;;;;;;;;;;;;;;;;;4888190;29;20009;-84
2023/09/04 02:19:29;;;;;;;;;;;;;;;;;;4891899;29;19948;-84
2023/09/04 02:21:56;;;;;;;;;;;;;;;;;;4901927;29;19934;-83
2023/09/04 02:24:23;;;;;;;;;;;;;;;;;;4909122;29;19931;-84
2023/09/04 02:26:54;;;;;;;;;;;;;;;;;;4870411;29;20093;-84
2023/09/04 02:29:21;;;;;;;;;;;;;;;;;;4896661;29;19977;-84
2023/09/04 02:31:49;;;;;;;;;;;;;;;;;;4888117;29;19927;-83
2023/09/04 02:34:16;;;;;;;;;;;;;;;;;;4871555;29;20677;-84
2023/09/04 02:36:43;;;;;;;;;;;;;;;;;;4871710;29;19970;-83
2023/09/04 02:39:10;;;;;;;;;;;;;;;;;;4870889;29;19934;-84
2023/09/04 02:41:36;;;;;;;;;;;;;;;;;;4885389;29;20485;-84
2023/09/04 02:44:02;;;;;;;;;;;;;;;;;;4902482;29;20044;-84
2023/09/04 02:46:32;;;;;;;;;;;;;;;;;;4883438;29;20439;-84
2023/09/04 02:48:58;;;;;;;;;;;;;;;;;;4863682;29;19932;-84
2023/09/04 02:51:25;;;;;;;;;;;;;;;;;;4852403;29;20369;-84
2023/09/04 02:54:06;;;;;;;;;;;;;;;;;;4904470;29;19989;-84
2023/09/04 02:56:33;;;;;;;;;;;;;;;;;;4890980;29;20258;-84
2023/09/04 02:59:01;;;;;;;;;;;;;;;;;;4902990;29;19923;-84
2023/09/04 03:01:28;;;;;;;;;;;;;;;;;;4904721;29;19930;-84
2023/09/04 03:03:54;;;;;;;;;;;;;;;;;;4893252;29;20057;-84
2023/09/04 03:06:21;;;;;;;;;;;;;;;;;;4903711;29;19935;-84
2023/09/04 03:11:42;;;;;;;;;;;;;;;;;;4894047;29;19930;-84
2023/09/04 03:14:09;;;;;;;;;;;;;;;;;;4905435;29;20180;-84
2023/09/04 03:16:35;;;;;;;;;;;;;;;;;;4889564;29;19927;-83
2023/09/04 03:19:01;;;;;;;;;;;;;;;;;;4907040;28;20366;-83
2023/09/04 03:21:28;;;;;;;;;;;;;;;;;;4922367;28;19930;-84
2023/09/04 03:24:04;;;;;;;;;;;;;;;;;;4928590;28;19988;-84
2023/09/04 03:26:37;;;;;;;;;;;;;;;;;;4955965;28;20871;-84
2023/09/04 03:29:03;;;;;;;;;;;;;;;;;;4958824;28;19925;-84
2023/09/04 03:31:30;;;;;;;;;;;;;;;;;;4959504;28;19922;-84
2023/09/04 03:34:00;;;;;;;;;;;;;;;;;;4960862;28;19937;-84
2023/09/04 03:36:28;;;;;;;;;;;;;;;;;;4960238;28;19934;-84
2023/09/04 03:38:55;;;;;;;;;;;;;;;;;;4949040;28;19973;-84
2023/09/04 03:41:30;;;;;;;;;;;;;;;;;;4963090;28;19937;-84
2023/09/04 03:50:35;;;;;;;;;;;;;;;;;;;;;
2023/09/04 03:53:20;;;;;;;;;;;;;;;;;;4870611;29;20017;-84
2023/09/04 03:55:48;;;;;;;;;;;;;;;;;;4883215;29;19923;-84
2023/09/04 03:58:17;;;;;;;;;;;;;;;;;;4881347;29;19990;-84
2023/09/04 04:00:44;;;;;;;;;;;;;;;;;;4862938;29;19927;-84
2023/09/04 04:03:10;;;;;;;;;;;;;;;;;;4883784;29;20343;-84
2023/09/04 04:05:37;;;;;;;;;;;;;;;;;;4862060;29;20133;-84
2023/09/04 04:08:06;;;;;;;;;;;;;;;;;;4849774;29;19934;-84
2023/09/04 04:10:33;;;;;;;;;;;;;;;;;;4880173;29;20310;-83
2023/09/04 04:13:00;;;;;;;;;;;;;;;;;;4891605;28;20030;-84
2023/09/04 04:15:26;;;;;;;;;;;;;;;;;;4922891;28;19930;-84
2023/09/04 04:17:53;;;;;;;;;;;;;;;;;;4922240;28;19974;-83
2023/09/04 04:20:20;;;;;;;;;;;;;;;;;;4925405;28;19930;-83
2023/09/04 04:22:46;;;;;;;;;;;;;;;;;;4941873;28;20030;-84
2023/09/04 04:25:13;;;;;;;;;;;;;;;;;;4915717;28;20028;-84
2023/09/04 04:27:39;;;;;;;;;;;;;;;;;;4921514;28;19930;-84
2023/09/04 04:30:12;;;;;;;;;;;;;;;;;;4926967;28;20033;-84
2023/09/04 04:32:40;;;;;;;;;;;;;;;;;;4936249;28;20392;-84
2023/09/04 04:35:07;;;;;;;;;;;;;;;;;;4967938;28;19929;-84
2023/09/04 04:37:35;;;;;;;;;;;;;;;;;;4966620;28;19960;-84
2023/09/04 04:40:02;;;;;;;;;;;;;;;;;;4979662;28;20377;-84
2023/09/04 04:42:29;;;;;;;;;;;;;;;;;;4965844;28;20036;-84
2023/09/04 04:45:04;;;;;;;;;;;;;;;;;;4968007;28;19926;-84
2023/09/04 04:47:39;;;;;;;;;;;;;;;;;;4937039;28;19930;-84
2023/09/04 04:50:05;;;;;;;;;;;;;;;;;;4925079;28;20283;-84
2023/09/04 04:52:32;;;;;;;;;;;;;;;;;;4940216;28;19974;-83
2023/09/04 04:54:58;;;;;;;;;;;;;;;;;;4916998;28;19930;-84
2023/09/04 04:57:25;;;;;;;;;;;;;;;;;;4934557;28;19978;-84
2023/09/04 04:59:57;;;;;;;;;;;;;;;;;;4939296;28;20294;-84
2023/09/04 05:02:25;;;;;;;;;;;;;;;;;;4925284;28;20392;-84
2023/09/04 05:10:29;;;;;;;;;;;;;;;;;;4938189;28;19962;-84
2023/09/04 05:12:56;;;;;;;;;;;;;;;;;;4922063;28;19927;-84
2023/09/04 05:15:23;;;;;;;;;;;;;;;;;;4920316;28;19958;-84
2023/09/04 05:17:53;;;;;;;;;;;;;;;;;;4949805;28;20040;-84
2023/09/04 05:20:19;;;;;;;;;;;;;;;;;;4963069;28;20317;-84
2023/09/04 05:22:46;;;;;;;;;;;;;;;;;;4963594;28;19936;-84
2023/09/04 05:25:13;;;;;;;;;;;;;;;;;;4962109;28;19996;-84
2023/09/04 05:27:41;;;;;;;;;;;;;;;;;;4961815;28;19941;-84
2023/09/04 05:30:08;;;;;;;;;;;;;;;;;;4949785;28;19925;-83
2023/09/04 05:32:35;;;;;;;;;;;;;;;;;;4975405;28;19941;-84
2023/09/04 05:35:01;;;;;;;;;;;;;;;;;;4950274;28;19930;-84
2023/09/04 05:37:30;;;;;;;;;;;;;;;;;;4936244;28;19926;-84
2023/09/04 05:39:56;;;;;;;;;;;;;;;;;;4935823;28;19984;-84
2023/09/04 05:42:23;;;;;;;;;;;;;;;;;;4976651;28;19930;-84
2023/09/04 05:44:49;;;;;;;;;;;;;;;;;;4955422;28;19929;-84
2023/09/04 05:47:15;;;;;;;;;;;;;;;;;;4944879;28;19937;-84
2023/09/04 05:49:42;;;;;;;;;;;;;;;;;;4954334;28;19942;-84
2023/09/04 05:52:08;;;;;;;;;;;;;;;;;;4937319;28;20080;-83
2023/09/04 05:54:34;;;;;;;;;;;;;;;;;;4984050;28;20008;-84
2023/09/04 05:57:02;;;;;;;;;;;;;;;;;;4943866;28;19942;-83
2023/09/04 05:59:28;;;;;;;;;;;;;;;;;;4974301;28;19934;-84
2023/09/04 06:01:55;;;;;;;;;;;;;;;;;;4981360;28;19923;-84
2023/09/04 06:04:23;;;;;;;;;;;;;;;;;;4971711;28;19930;-84
2023/09/04 06:06:49;;;;;;;;;;;;;;;;;;4948262;28;19938;-84
2023/09/04 06:09:15;;;;;;;;;;;;;;;;;;4946726;28;20030;-84
2023/09/04 06:11:42;;;;;;;;;;;;;;;;;;4939095;28;20691;-84
2023/09/04 06:14:08;;;;;;;;;;;;;;;;;;4965768;28;19926;-84
2023/09/04 06:16:35;;;;;;;;;;;;;;;;;;4938973;28;19930;-84
2023/09/04 06:22:10;;;;;;;;;;;;;;;;;;4946798;28;19930;-84
2023/09/04 06:24:36;;;;;;;;;;;;;;;;;;4949457;28;19930;-84
2023/09/04 06:27:07;;;;;;;;;;;;;;;;;;4938572;28;19937;-83
2023/09/04 06:29:43;;;;;;;;;;;;;;;;;;4956125;28;23809;-84
2023/09/04 06:32:13;;;;;;;;;;;;;;;;;;4935062;28;19934;-83
2023/09/04 06:34:42;;;;;;;;;;;;;;;;;;4977567;28;19926;-84
2023/09/04 06:37:10;;;;;;;;;;;;;;;;;;4947957;28;19946;-84
2023/09/04 06:39:36;;;;;;;;;;;;;;;;;;4955049;28;19945;-84
2023/09/04 06:42:03;;;;;;;;;;;;;;;;;;4975066;28;19953;-84
2023/09/04 06:44:32;;;;;;;;;;;;;;;;;;4969851;28;20012;-84
2023/09/04 06:47:03;;;;;;;;;;;;;;;;;;4968157;28;19974;-84
2023/09/04 06:49:30;;;;;;;;;;;;;;;;;;4963817;28;19976;-85
2023/09/04 06:52:00;;;;;;;;;;;;;;;;;;4981978;28;19926;-84
2023/09/04 06:54:28;;;;;;;;;;;;;;;;;;4961739;28;19930;-84
2023/09/04 06:56:55;;;;;;;;;;;;;;;;;;4953106;28;19933;-84
2023/09/04 06:59:22;;;;;;;;;;;;;;;;;;4968248;28;20395;-85
2023/09/04 07:01:49;;;;;;;;;;;;;;;;;;4964136;28;19930;-84
2023/09/04 07:04:16;;;;;;;;;;;;;;;;;;4969912;28;19921;-84
2023/09/04 07:06:48;;;;;;;;;;;;;;;;;;4958541;28;19999;-84
2023/09/04 07:09:14;;;;;;;;;;;;;;;;;;4951168;28;20249;-84
2023/09/04 07:11:41;;;;;;;;;;;;;;;;;;4957301;28;20069;-84
2023/09/04 07:14:09;;;;;;;;;;;;;;;;;;4980484;28;19937;-84
2023/09/04 07:16:37;;;;;;;;;;;;;;;;;;4967065;28;19933;-84
2023/09/04 07:19:04;;;;;;;;;;;;;;;;;;4970241;28;19967;-84
2023/09/04 07:21:31;;;;;;;;;;;;;;;;;;4957096;28;22702;-84
2023/09/04 07:23:58;;;;;;;;;;;;;;;;;;4965973;28;20389;-85
2023/09/04 07:26:24;;;;;;;;;;;;;;;;;;4962366;28;20036;-84
2023/09/04 07:28:59;;;;;;;;;;;;;;;;;;4965769;28;20083;-84
2023/09/04 07:31:25;;;;;;;;;;;;;;;;;;4962027;28;20360;-84
2023/09/04 07:33:53;;;;;;;;;;;;;;;;;;4966461;28;19976;-84
2023/09/04 07:36:20;;;;;;;;;;;;;;;;;;4950364;28;19934;-85
2023/09/04 07:38:46;;;;;;;;;;;;;;;;;;4952420;28;19986;-85
2023/09/04 07:41:12;;;;;;;;;;;;;;;;;;4969553;28;20056;-86
2023/09/04 07:43:39;;;;;;;;;;;;;;;;;;4955680;28;20376;-85
2023/09/04 07:46:08;;;;;;;;;;;;;;;;;;4960537;28;19980;-85
2023/09/04 07:48:48;;;;;;;;;;;;;;;;;;;;;
2023/09/04 07:51:19;;;;;;;;;;;;;;;;;;4965159;28;19966;-85
2023/09/04 07:53:45;;;;;;;;;;;;;;;;;;4966310;28;19980;-84
2023/09/04 07:56:11;;;;;;;;;;;;;;;;;;4976401;28;19937;-85
2023/09/04 07:58:39;;;;;;;;;;;;;;;;;;4966050;28;19941;-85
2023/09/04 08:01:06;;;;;;;;;;;;;;;;;;4963813;28;19932;-85
2023/09/04 08:03:32;;;;;;;;;;;;;;;;;;4956918;28;19969;-85
2023/09/04 08:05:59;;;;;;;;;;;;;;;;;;4980893;28;19938;-84
2023/09/04 08:08:25;;;;;;;;;;;;;;;;;;4954830;28;19926;-84
2023/09/04 08:10:51;;;;;;;;;;;;;;;;;;4972198;28;19972;-85
2023/09/04 08:13:22;;;;;;;;;;;;;;;;;;4957205;28;19926;-85
2023/09/04 08:15:50;;;;;;;;;;;;;;;;;;4972259;28;19926;-84
2023/09/04 08:18:35;;;;;;;;;;;;;;;;;;4963748;28;20400;-84
2023/09/04 08:21:03;;;;;;;;;;;;;;;;;;4946994;28;20517;-84
2023/09/04 08:26:29;;;;;;;;;;;;;;;;;;4947371;28;19926;-84
2023/09/04 08:28:56;;;;;;;;;;;;;;;;;;4947810;28;19926;-85
2023/09/04 08:31:24;;;;;;;;;;;;;;;;;;4947027;28;20472;-84
2023/09/04 08:33:51;;;;;;;;;;;;;;;;;;4934291;28;20468;-84
2023/09/04 08:36:17;;;;;;;;;;;;;;;;;;4913725;29;19936;-84
2023/09/04 08:38:44;;;;;;;;;;;;;;;;;;4892827;29;20032;-84
2023/09/04 08:41:10;;;;;;;;;;;;;;;;;;4886757;29;20014;-85
2023/09/04 08:46:49;;;;;;;;;;;;;;;;;;4849471;29;19944;-84
2023/09/04 08:49:35;;;;;;;;;;;;;;;;;;4828414;29;20011;-84
2023/09/04 08:52:03;;;;;;;;;;;;;;;;;;4859105;29;19966;-85
2023/09/04 08:54:29;;;;;;;;;;;;;;;;;;4852298;29;19932;-84
2023/09/04 08:57:04;;;;;;;;;;;;;;;;;;4869912;28;19995;-84
2023/09/04 08:59:30;;;;;;;;;;;;;;;;;;4908265;28;19938;-85
2023/09/04 09:01:56;;;;;;;;;;;;;;;;;;4908044;29;19931;-85
2023/09/04 09:04:22;;;;;;;;;;;;;;;;;;4916770;29;21733;-85
2023/09/04 09:06:50;;;;;;;;;;;;;;;;;;4907511;28;19930;-85
2023/09/04 09:09:17;;;;;;;;;;;;;;;;;;4952557;28;20013;-84
2023/09/04 09:11:43;;;;;;;;;;;;;;;;;;4952955;28;19922;-84
2023/09/04 09:14:10;;;;;;;;;;;;;;;;;;4954277;28;19930;-84
2023/09/04 09:16:37;;;;;;;;;;;;;;;;;;4962474;28;19930;-84
2023/09/04 09:19:05;;;;;;;;;;;;;;;;;;4958345;28;19926;-84
2023/09/04 09:21:33;;;;;;;;;;;;;;;;;;4958908;28;20016;-84
2023/09/04 09:24:04;;;;;;;;;;;;;;;;;;4952900;28;19971;-85
2023/09/04 09:26:30;;;;;;;;;;;;;;;;;;4957297;28;20355;-84
2023/09/04 09:28:56;;;;;;;;;;;;;;;;;;4950428;28;20048;-85
2023/09/04 09:31:27;;;;;;;;;;;;;;;;;;4951146;28;20445;-85
2023/09/04 09:33:59;;;;;;;;;;;;;;;;;;4933361;28;19980;-85
2023/09/04 09:36:26;;;;;;;;;;;;;;;;;;4910944;29;19930;-84
2023/09/04 09:38:54;;;;;;;;;;;;;;;;;;4900424;28;20030;-85
2023/09/04 09:41:26;;;;;;;;;;;;;;;;;;4912821;28;19937;-85
2023/09/04 09:44:03;;;;;;;;;;;;;;;;;;;;;
2023/09/04 09:46:33;;;;;;;;;;;;;;;;;;4926924;28;20066;-85
2023/09/04 09:51:59;;;;;;;;;;;;;;;;;;;;;
2023/09/04 09:54:42;;;;;;;;;;;;;;;;;;4935401;28;19960;-85
2023/09/04 09:57:18;;;;;;;;;;;;;;;;;;4923647;28;19931;-84
2023/09/04 09:59:46;;;;;;;;;;;;;;;;;;4935800;28;19939;-84
2023/09/04 10:02:13;;;;;;;;;;;;;;;;;;4902683;29;19927;-84
2023/09/04 10:04:56;;;;;;;;;;;;;;;;;;4923452;28;19937;-85
2023/09/04 10:07:42;;;;;;;;;;;;;;;;;;4972876;28;19934;-85
2023/09/04 10:10:34;;;;;;;;;;;;;;;;;;4973067;28;19949;-85
2023/09/04 10:13:02;;;;;;;;;;;;;;;;;;4958501;28;19933;-85
2023/09/04 10:15:55;;;;;;;;;;;;;;;;;;4968450;28;20396;-85
2023/09/04 10:21:38;;;;;;;;;;;;;;;;;;4927796;28;22684;-85
2023/09/04 10:27:21;;;;;;;;;;;;;;;;;;4853022;29;19932;-85
2023/09/04 10:31:01;;;;;;;;;;;;;;;;;;4931414;28;19930;-85
2023/09/04 10:33:26;;;;;;;;;;;;;;;;;;4940697;28;19956;-85
2023/09/04 10:36:11;;;;;;;;;;;;;;;;;;4953390;28;20392;-85
2023/09/04 10:38:39;;;;;;;;;;;;;;;;;;4925546;28;19973;-85
2023/09/04 10:41:19;;;;;;;;;;;;;;;;;;4954040;28;19933;-85
2023/09/04 10:43:46;;;;;;;;;;;;;;;;;;4923577;28;19930;-85
2023/09/04 10:46:20;;;;;;;;;;;;;;;;;;4925596;28;19941;-85
2023/09/04 10:48:57;;;;;;;;;;;;;;;;;;4937313;28;19945;-85
2023/09/04 10:51:23;;;;;;;;;;;;;;;;;;4922074;28;19957;-85
2023/09/04 10:53:57;;;;;;;;;;;;;;;;;;4934233;28;20320;-85
2023/09/04 10:56:43;;;;;;;;;;;;;;;;;;;;;
2023/09/04 10:59:16;;;;;;;;;;;;;;;;;;4940099;28;19985;-85
2023/09/04 11:01:42;;;;;;;;;;;;;;;;;;4944645;28;20020;-85
2023/09/04 11:04:16;;;;;;;;;;;;;;;;;;4951443;28;20184;-85
2023/09/04 11:06:46;;;;;;;;;;;;;;;;;;4946457;28;19988;-85
2023/09/04 11:09:12;;;;;;;;;;;;;;;;;;4954709;28;19929;-85
2023/09/04 11:11:40;;;;;;;;;;;;;;;;;;4955539;28;19933;-85
2023/09/04 11:14:07;;;;;;;;;;;;;;;;;;4953894;28;20321;-84
2023/09/04 11:16:42;;;;;;;;;;;;;;;;;;4947783;28;19936;-85
2023/09/04 11:19:10;;;;;;;;;;;;;;;;;;4954821;28;19930;-85
2023/09/04 11:22:01;;;;;;;;;;;;;;;;;;4954857;28;19940;-84
2023/09/04 11:24:53;;;;;;;;;;;;;;;;;;4956415;28;20346;-85
2023/09/04 11:27:20;;;;;;;;;;;;;;;;;;4957381;28;20368;-85
2023/09/04 11:29:58;;;;;;;;;;;;;;;;;;4953358;28;19929;-85
2023/09/04 11:32:34;;;;;;;;;;;;;;;;;;4952555;28;19933;-85
2023/09/04 11:35:00;;;;;;;;;;;;;;;;;;4936529;28;20444;-84
2023/09/04 11:37:28;;;;;;;;;;;;;;;;;;4950680;28;19958;-85
2023/09/04 11:39:57;;;;;;;;;;;;;;;;;;4933652;28;19930;-84
2023/09/04 11:42:23;;;;;;;;;;;;;;;;;;4948393;28;21670;-85
2023/09/04 11:44:56;;;;;;;;;;;;;;;;;;4938931;28;19922;-85
2023/09/04 11:47:40;;;;;;;;;;;;;;;;;;4948636;28;20011;-84
2023/09/04 11:50:14;;;;;;;;;;;;;;;;;;4954086;28;20297;-84
2023/09/04 11:52:40;;;;;;;;;;;;;;;;;;4954852;28;20366;-86
2023/09/04 11:55:07;;;;;;;;;;;;;;;;;;4956380;28;19922;-85
2023/09/04 11:57:34;;;;;;;;;;;;;;;;;;4954655;28;19967;-85
2023/09/04 12:00:00;;;;;;;;;;;;;;;;;;4941645;28;19949;-85
2023/09/04 12:02:29;;;;;;;;;;;;;;;;;;4956010;28;19922;-85
2023/09/04 12:05:00;;;;;;;;;;;;;;;;;;4943137;28;19979;-84
2023/09/04 12:07:30;;;;;;;;;;;;;;;;;;4940824;28;20361;-85
2023/09/04 12:09:59;;;;;;;;;;;;;;;;;;4960882;28;19926;-85
2023/09/04 12:12:42;;;;;;;;;;;;;;;;;;4952557;28;19926;-85
2023/09/04 12:15:09;;;;;;;;;;;;;;;;;;4924458;28;19974;-85
2023/09/04 12:17:37;;;;;;;;;;;;;;;;;;4914368;28;20528;-86
2023/09/04 12:20:06;;;;;;;;;;;;;;;;;;4936276;28;19930;-85
2023/09/04 12:22:46;;;;;;;;;;;;;;;;;;4935114;28;19930;-85
2023/09/04 12:25:55;;;;;;;;;;;;;;;;;;4920640;28;20381;-85
2023/09/04 12:28:09;;;;;;;;;;;;;;;;;;4928489;28;19934;-85
2023/09/04 12:30:40;;;;;;;;;;;;;;;;;;4920288;28;20292;-85
2023/09/04 12:33:20;;;;;;;;;;;;;;;;;;4948197;28;19976;-84
2023/09/04 12:35:54;;;;;;;;;;;;;;;;;;4936090;28;19930;-85
2023/09/04 12:38:25;;;;;;;;;;;;;;;;;;4931688;28;19934;-85
2023/09/04 12:40:53;;;;;;;;;;;;;;;;;;4937908;28;19929;-85
2023/09/04 12:43:20;;;;;;;;;;;;;;;;;;4940597;28;20456;-84
2023/09/04 12:45:47;;;;;;;;;;;;;;;;;;4953005;28;19922;-84
2023/09/04 12:48:14;;;;;;;;;;;;;;;;;;4952498;28;20024;-84
2023/09/04 12:50:51;;;;;;;;;;;;;;;;;;4958536;28;19957;-84
2023/09/04 12:53:18;;;;;;;;;;;;;;;;;;4953018;28;20293;-84
2023/09/04 12:55:45;;;;;;;;;;;;;;;;;;4954074;28;21125;-84
2023/09/04 12:58:11;;;;;;;;;;;;;;;;;;4953707;28;19926;-84
2023/09/04 13:00:40;;;;;;;;;;;;;;;;;;4941634;28;20063;-85
2023/09/04 13:03:09;;;;;;;;;;;;;;;;;;4954664;28;19957;-85
2023/09/04 13:08:53;;;;;;;;;;;;;;;;;;;;;
2023/09/04 13:11:10;;;;;;;;;;;;;;;;;;4952166;28;19936;-84
2023/09/04 13:13:45;;;;;;;;;;;;;;;;;;4952151;28;19930;-84
2023/09/04 13:21:32;;;;;;;;;;;;;;;;;;5007531;23;20368;-85
2023/09/04 13:24:01;;;;;;;;;;;;;;;;;;4963741;28;19930;-84
2023/09/04 13:26:28;;;;;;;;;;;;;;;;;;4982045;28;19936;-84
2023/09/04 13:28:56;;;;;;;;;;;;;;;;;;4982068;28;21033;-84
2023/09/04 13:31:23;;;;;;;;;;;;;;;;;;5004614;28;20004;-85
2023/09/04 13:33:50;;;;;;;;;;;;;;;;;;4986843;28;19925;-85
2023/09/04 13:36:17;;;;;;;;;;;;;;;;;;4987468;28;20403;-84
2023/09/04 13:38:43;;;;;;;;;;;;;;;;;;4981369;28;20023;-85
2023/09/04 13:41:12;;;;;;;;;;;;;;;;;;4972654;28;19936;-86
2023/09/04 13:43:40;;;;;;;;;;;;;;;;;;4977117;28;19929;-85
2023/09/04 13:46:07;;;;;;;;;;;;;;;;;;4967024;28;19935;-85
2023/09/04 13:48:34;;;;;;;;;;;;;;;;;;4980912;28;19925;-85
2023/09/04 13:51:05;;;;;;;;;;;;;;;;;;4971881;28;20384;-85
2023/09/04 13:53:31;;;;;;;;;;;;;;;;;;4979876;28;19929;-85
2023/09/04 13:55:59;;;;;;;;;;;;;;;;;;4966213;28;19929;-85
2023/09/04 13:58:26;;;;;;;;;;;;;;;;;;5000938;28;19973;-85
2023/09/04 14:01:02;;;;;;;;;;;;;;;;;;;;;
2023/09/04 14:06:33;;;;;;;;;;;;;;;;;;4978152;28;20020;-85
2023/09/04 14:09:04;;;;;;;;;;;;;;;;;;4968254;28;21780;-85
2023/09/04 14:11:36;;;;;;;;;;;;;;;;;;4967818;28;20375;-85
2023/09/04 14:14:03;;;;;;;;;;;;;;;;;;4992305;28;19926;-85
2023/09/04 14:16:33;;;;;;;;;;;;;;;;;;4982308;28;20030;-85
2023/09/04 14:19:09;;;;;;;;;;;;;;;;;;4985454;28;19985;-85
2023/09/04 14:21:50;;;;;;;;;;;;;;;;;;4980743;28;19929;-85
2023/09/04 14:24:18;;;;;;;;;;;;;;;;;;4981360;28;19972;-85
2023/09/04 14:26:45;;;;;;;;;;;;;;;;;;4975595;28;20060;-85
2023/09/04 14:29:15;;;;;;;;;;;;;;;;;;4994151;28;19980;-84
2023/09/04 14:31:42;;;;;;;;;;;;;;;;;;4998925;28;20015;-85
2023/09/04 14:34:08;;;;;;;;;;;;;;;;;;4980034;28;20011;-85
2023/09/04 14:36:35;;;;;;;;;;;;;;;;;;4970273;28;20384;-85
2023/09/04 14:39:02;;;;;;;;;;;;;;;;;;4980683;28;19937;-85
2023/09/04 14:41:51;;;;;;;;;;;;;;;;;;4966088;28;19979;-85
2023/09/04 14:44:16;;;;;;;;;;;;;;;;;;4998885;28;19939;-86
2023/09/04 14:46:42;;;;;;;;;;;;;;;;;;4966030;28;19937;-85
2023/09/04 14:49:11;;;;;;;;;;;;;;;;;;4973868;28;19929;-85
2023/09/04 14:51:58;;;;;;;;;;;;;;;;;;4935954;28;20026;-85
2023/09/04 14:54:28;;;;;;;;;;;;;;;;;;4936570;28;19953;-85
2023/09/04 14:57:04;;;;;;;;;;;;;;;;;;4925610;28;19965;-85
2023/09/04 15:00:01;;;;;;;;;;;;;;;;;;;;;
2023/09/04 15:02:45;;;;;;;;;;;;;;;;;;4919972;28;20071;-88
2023/09/04 15:05:19;;;;;;;;;;;;;;;;;;4913782;28;20042;-85
2023/09/04 15:08:00;;;;;;;;;;;;;;;;;;4920098;28;19934;-85
2023/09/04 15:10:35;;;;;;;;;;;;;;;;;;4920019;28;20350;-85
2023/09/04 15:13:04;;;;;;;;;;;;;;;;;;4913909;28;19926;-85
2023/09/04 15:15:31;;;;;;;;;;;;;;;;;;4938210;28;19926;-84
2023/09/04 15:18:00;;;;;;;;;;;;;;;;;;4939679;28;19932;-84
2023/09/04 15:20:26;;;;;;;;;;;;;;;;;;4916879;28;20326;-83
2023/09/04 15:22:55;;;;;;;;;;;;;;;;;;4924767;28;19922;-83
2023/09/04 15:25:22;;;;;;;;;;;;;;;;;;4930035;28;20349;-83
2023/09/04 15:27:50;;;;;;;;;;;;;;;;;;4932178;28;19940;-83
2023/09/04 15:30:17;;;;;;;;;;;;;;;;;;4921097;28;19964;-83
2023/09/04 15:32:44;;;;;;;;;;;;;;;;;;4939751;28;19936;-83
2023/09/04 15:35:11;;;;;;;;;;;;;;;;;;4951039;28;20003;-83
2023/09/04 15:37:37;;;;;;;;;;;;;;;;;;4964263;28;20982;-84
2023/09/04 15:40:04;;;;;;;;;;;;;;;;;;4952633;28;19976;-83
2023/09/04 15:42:34;;;;;;;;;;;;;;;;;;4985070;28;19933;-84
2023/09/04 15:45:00;;;;;;;;;;;;;;;;;;4969465;28;20578;-84
2023/09/04 15:47:31;;;;;;;;;;;;;;;;;;4998102;28;19956;-84
2023/09/04 15:50:07;;;;;;;;;;;;;;;;;;4984509;28;22300;-86
2023/09/04 15:52:33;;;;;;;;;;;;;;;;;;4964022;28;19995;-83
2023/09/04 15:54:59;;;;;;;;;;;;;;;;;;4981729;28;19960;-84
2023/09/04 15:57:32;;;;;;;;;;;;;;;;;;4997189;28;19929;-84
2023/09/04 16:00:06;;;;;;;;;;;;;;;;;;4968578;28;20061;-84
2023/09/04 16:02:39;;;;;;;;;;;;;;;;;;4981045;28;19965;-84
2023/09/04 16:05:05;;;;;;;;;;;;;;;;;;4972089;28;20011;-84
2023/09/04 16:07:32;;;;;;;;;;;;;;;;;;4977617;28;19940;-83
2023/09/04 16:10:10;;;;;;;;;;;;;;;;;;;;;
2023/09/04 16:12:39;;;;;;;;;;;;;;;;;;4995765;28;19929;-83
2023/09/04 16:15:23;;;;;;;;;;;;;;;;;;4918902;28;19993;-83
2023/09/04 16:17:51;;;;;;;;;;;;;;;;;;4934951;28;19930;-83
2023/09/04 16:20:17;;;;;;;;;;;;;;;;;;4904886;28;19931;-83
2023/09/04 16:22:44;;;;;;;;;;;;;;;;;;4917848;28;19991;-83
2023/09/04 16:25:10;;;;;;;;;;;;;;;;;;4938795;28;20795;-83
2023/09/04 16:27:39;;;;;;;;;;;;;;;;;;4920548;28;19932;-83
2023/09/04 16:33:24;;;;;;;;;;;;;;;;;;;;;
2023/09/04 16:36:16;;;;;;;;;;;;;;;;;;4872029;29;20446;-83
2023/09/04 16:38:42;;;;;;;;;;;;;;;;;;4890279;29;19930;-83
2023/09/04 16:44:02;;;;;;;;;;;;;;;;;;4864849;29;20536;-84
2023/09/04 16:46:34;;;;;;;;;;;;;;;;;;4886610;29;20383;-84
2023/09/04 16:49:19;;;;;;;;;;;;;;;;;;;;;
2023/09/04 16:51:54;;;;;;;;;;;;;;;;;;4905434;28;20140;-84
2023/09/04 16:54:30;;;;;;;;;;;;;;;;;;;;;
2023/09/04 16:56:58;;;;;;;;;;;;;;;;;;4935349;28;19926;-83
2023/09/04 16:59:36;;;;;;;;;;;;;;;;;;4922655;28;19945;-84
2023/09/04 17:02:07;;;;;;;;;;;;;;;;;;4923863;28;19942;-84
2023/09/04 17:05:02;;;;;;;;;;;;;;;;;;4975905;28;19992;-84
2023/09/04 17:07:55;;;;;;;;;;;;;;;;;;4996054;28;19937;-84
2023/09/04 17:10:25;;;;;;;;;;;;;;;;;;4963323;28;19936;-84
2023/09/04 17:13:05;;;;;;;;;;;;;;;;;;4976060;28;20025;-84
2023/09/04 17:15:42;;;;;;;;;;;;;;;;;;4989177;28;20376;-83
2023/09/04 17:18:10;;;;;;;;;;;;;;;;;;4976196;28;20033;-83
2023/09/04 17:20:36;;;;;;;;;;;;;;;;;;4984015;28;19930;-84
2023/09/04 17:23:03;;;;;;;;;;;;;;;;;;4988041;28;19991;-84
2023/09/04 17:25:40;;;;;;;;;;;;;;;;;;;;;
2023/09/04 17:31:30;;;;;;;;;;;;;;;;;;4961627;28;19952;-84
2023/09/04 17:33:59;;;;;;;;;;;;;;;;;;4943955;28;19926;-85
2023/09/04 17:36:30;;;;;;;;;;;;;;;;;;4927876;28;19940;-84
2023/09/04 17:39:02;;;;;;;;;;;;;;;;;;4928088;28;19954;-84
2023/09/04 17:41:32;;;;;;;;;;;;;;;;;;4934700;28;19930;-85
2023/09/04 17:47:03;;;;;;;;;;;;;;;;;;;;;
2023/09/04 17:49:59;;;;;;;;;;;;;;;;;;4887658;29;20646;-85
2023/09/04 17:55:42;;;;;;;;;;;;;;;;;;4838771;29;19934;-84
2023/09/04 17:58:09;;;;;;;;;;;;;;;;;;4870473;29;20602;-84
2023/09/04 18:00:35;;;;;;;;;;;;;;;;;;4871979;29;19956;-84
2023/09/04 18:03:06;;;;;;;;;;;;;;;;;;4901647;29;19923;-84
2023/09/04 18:05:32;;;;;;;;;;;;;;;;;;4869335;29;20563;-84
2023/09/04 18:08:00;;;;;;;;;;;;;;;;;;4886045;29;19994;-84
2023/09/04 18:10:43;;;;;;;;;;;;;;;;;;;;;
2023/09/04 18:13:13;;;;;;;;;;;;;;;;;;4936347;28;19930;-84
2023/09/04 18:15:49;;;;;;;;;;;;;;;;;;4911235;28;20000;-84
2023/09/04 18:18:40;;;;;;;;;;;;;;;;;;;;;
2023/09/04 18:21:18;;;;;;;;;;;;;;;;;;4975903;28;20017;-84
2023/09/04 18:23:55;;;;;;;;;;;;;;;;;;;;;
2023/09/04 18:26:28;;;;;;;;;;;;;;;;;;4982194;28;20703;-83
2023/09/04 18:29:09;;;;;;;;;;;;;;;;;;4949222;28;19929;-84
2023/09/04 18:31:36;;;;;;;;;;;;;;;;;;4936352;28;19923;-84